sensor_id;sensor_type;location;lat;lon;timestamp;P1;durP1;ratioP1;P2;durP2;ratioP2
10333;SDS011;5212;47.892;16.406;2023-04-29T00:01:50;16.27;;;14.60;;
10333;SDS011;5212;47.892;16.406;2023-04-29T00:04:16;17.90;;;16.10;;
10333;SDS011;5212;47.892;16.406;2023-04-29T00:06:42;22.80;;;20.33;;
10333;SDS011;5212;47.892;16.406;2023-04-29T00:09:08;21.93;;;18.83;;
10333;SDS011;5212;47.892;16.406;2023-04-29T00:11:34;22.17;;;19.83;;
10333;SDS011;5212;47.892;16.406;2023-04-29T00:14:00;21.63;;;18.63;;
10333;SDS011;5212;47.892;16.406;2023-04-29T00:16:26;19.97;;;17.87;;
10333;SDS011;5212;47.892;16.406;2023-04-29T00:18:53;21.40;;;19.27;;
10333;SDS011;5212;47.892;16.406;2023-04-29T00:21:19;21.90;;;19.50;;
10333;SDS011;5212;47.892;16.406;2023-04-29T00:23:45;21.97;;;19.57;;
10333;SDS011;5212;47.892;16.406;2023-04-29T00:26:11;20.77;;;17.97;;
10333;SDS011;5212;47.892;16.406;2023-04-29T00:28:37;20.60;;;17.87;;
10333;SDS011;5212;47.892;16.406;2023-04-29T00:31:03;20.23;;;17.30;;
10333;SDS011;5212;47.892;16.406;2023-04-29T00:33:29;17.70;;;15.90;;
10333;SDS011;5212;47.892;16.406;2023-04-29T00:35:56;16.10;;;14.50;;
10333;SDS011;5212;47.892;16.406;2023-04-29T00:38:22;15.77;;;14.17;;
10333;SDS011;5212;47.892;16.406;2023-04-29T00:40:48;22.73;;;20.33;;
10333;SDS011;5212;47.892;16.406;2023-04-29T00:43:14;18.47;;;16.53;;
10333;SDS011;5212;47.892;16.406;2023-04-29T00:45:40;18.23;;;16.33;;
10333;SDS011;5212;47.892;16.406;2023-04-29T00:48:06;15.87;;;14.23;;
10333;SDS011;5212;47.892;16.406;2023-04-29T00:50:32;17.03;;;15.33;;
10333;SDS011;5212;47.892;16.406;2023-04-29T00:52:59;15.53;;;13.93;;
10333;SDS011;5212;47.892;16.406;2023-04-29T00:55:25;15.53;;;14.03;;
10333;SDS011;5212;47.892;16.406;2023-04-29T00:57:51;15.97;;;14.37;;
10333;SDS011;5212;47.892;16.406;2023-04-29T01:00:17;15.73;;;14.13;;
10333;SDS011;5212;47.892;16.406;2023-04-29T01:02:44;15.87;;;13.77;;
10333;SDS011;5212;47.892;16.406;2023-04-29T01:05:10;17.30;;;15.50;;
10333;SDS011;5212;47.892;16.406;2023-04-29T01:07:39;16.87;;;15.17;;
10333;SDS011;5212;47.892;16.406;2023-04-29T01:10:13;18.40;;;16.50;;
10333;SDS011;5212;47.892;16.406;2023-04-29T01:12:40;17.03;;;15.23;;
10333;SDS011;5212;47.892;16.406;2023-04-29T01:15:12;16.00;;;14.37;;
10333;SDS011;5212;47.892;16.406;2023-04-29T01:17:43;16.03;;;14.47;;
10333;SDS011;5212;47.892;16.406;2023-04-29T01:20:13;19.23;;;17.17;;
10333;SDS011;5212;47.892;16.406;2023-04-29T01:22:39;18.33;;;16.43;;
10333;SDS011;5212;47.892;16.406;2023-04-29T01:25:06;15.77;;;14.03;;
10333;SDS011;5212;47.892;16.406;2023-04-29T01:27:36;15.60;;;13.97;;
10333;SDS011;5212;47.892;16.406;2023-04-29T01:30:07;16.13;;;14.43;;
10333;SDS011;5212;47.892;16.406;2023-04-29T01:32:42;14.67;;;13.17;;
10333;SDS011;5212;47.892;16.406;2023-04-29T01:35:16;14.47;;;12.97;;
10333;SDS011;5212;47.892;16.406;2023-04-29T01:37:48;13.43;;;12.03;;
10333;SDS011;5212;47.892;16.406;2023-04-29T01:40:18;13.80;;;12.40;;
10333;SDS011;5212;47.892;16.406;2023-04-29T01:42:47;15.90;;;14.20;;
10333;SDS011;5212;47.892;16.406;2023-04-29T01:45:18;15.77;;;14.10;;
10333;SDS011;5212;47.892;16.406;2023-04-29T01:47:45;16.97;;;15.23;;
10333;SDS011;5212;47.892;16.406;2023-04-29T01:50:11;15.93;;;14.27;;
10333;SDS011;5212;47.892;16.406;2023-04-29T01:52:37;15.40;;;13.80;;
10333;SDS011;5212;47.892;16.406;2023-04-29T01:55:04;15.20;;;13.60;;
10333;SDS011;5212;47.892;16.406;2023-04-29T01:57:31;13.60;;;12.13;;
10333;SDS011;5212;47.892;16.406;2023-04-29T01:59:58;12.60;;;11.37;;
10333;SDS011;5212;47.892;16.406;2023-04-29T02:02:26;11.33;;;10.23;;
10333;SDS011;5212;47.892;16.406;2023-04-29T02:04:52;13.40;;;12.00;;
10333;SDS011;5212;47.892;16.406;2023-04-29T02:07:18;12.50;;;11.27;;
10333;SDS011;5212;47.892;16.406;2023-04-29T02:09:45;12.33;;;11.03;;
10333;SDS011;5212;47.892;16.406;2023-04-29T02:12:11;13.83;;;12.53;;
10333;SDS011;5212;47.892;16.406;2023-04-29T02:14:37;12.53;;;11.30;;
10333;SDS011;5212;47.892;16.406;2023-04-29T02:17:03;12.00;;;10.63;;
10333;SDS011;5212;47.892;16.406;2023-04-29T02:19:29;13.30;;;11.57;;
10333;SDS011;5212;47.892;16.406;2023-04-29T02:21:55;13.40;;;12.10;;
10333;SDS011;5212;47.892;16.406;2023-04-29T02:24:21;12.23;;;11.03;;
10333;SDS011;5212;47.892;16.406;2023-04-29T02:26:47;11.53;;;10.43;;
10333;SDS011;5212;47.892;16.406;2023-04-29T02:29:13;11.80;;;10.60;;
10333;SDS011;5212;47.892;16.406;2023-04-29T02:31:40;11.97;;;10.77;;
10333;SDS011;5212;47.892;16.406;2023-04-29T02:34:06;10.90;;;9.80;;
10333;SDS011;5212;47.892;16.406;2023-04-29T02:36:32;12.97;;;11.20;;
10333;SDS011;5212;47.892;16.406;2023-04-29T02:38:58;13.00;;;11.70;;
10333;SDS011;5212;47.892;16.406;2023-04-29T02:41:24;12.83;;;11.57;;
10333;SDS011;5212;47.892;16.406;2023-04-29T02:43:50;13.97;;;12.57;;
10333;SDS011;5212;47.892;16.406;2023-04-29T02:46:17;14.23;;;12.83;;
10333;SDS011;5212;47.892;16.406;2023-04-29T02:48:43;13.83;;;12.37;;
10333;SDS011;5212;47.892;16.406;2023-04-29T02:51:09;12.63;;;11.40;;
10333;SDS011;5212;47.892;16.406;2023-04-29T02:53:36;12.40;;;11.20;;
10333;SDS011;5212;47.892;16.406;2023-04-29T02:56:02;13.57;;;12.17;;
10333;SDS011;5212;47.892;16.406;2023-04-29T02:58:28;13.80;;;12.30;;
10333;SDS011;5212;47.892;16.406;2023-04-29T03:00:54;12.60;;;11.30;;
10333;SDS011;5212;47.892;16.406;2023-04-29T03:03:20;13.50;;;12.17;;
10333;SDS011;5212;47.892;16.406;2023-04-29T03:05:47;15.40;;;13.37;;
10333;SDS011;5212;47.892;16.406;2023-04-29T03:08:14;16.20;;;14.00;;
10333;SDS011;5212;47.892;16.406;2023-04-29T03:10:40;15.57;;;13.90;;
10333;SDS011;5212;47.892;16.406;2023-04-29T03:13:06;15.70;;;13.40;;
10333;SDS011;5212;47.892;16.406;2023-04-29T03:15:32;19.07;;;16.77;;
10333;SDS011;5212;47.892;16.406;2023-04-29T03:17:58;17.20;;;14.93;;
10333;SDS011;5212;47.892;16.406;2023-04-29T03:20:25;17.67;;;15.87;;
10333;SDS011;5212;47.892;16.406;2023-04-29T03:22:52;18.87;;;16.93;;
10333;SDS011;5212;47.892;16.406;2023-04-29T03:25:18;18.57;;;16.57;;
10333;SDS011;5212;47.892;16.406;2023-04-29T03:27:44;19.27;;;16.80;;
10333;SDS011;5212;47.892;16.406;2023-04-29T03:30:11;17.53;;;15.67;;
10333;SDS011;5212;47.892;16.406;2023-04-29T03:32:37;19.93;;;16.80;;
10333;SDS011;5212;47.892;16.406;2023-04-29T03:35:03;18.67;;;16.67;;
10333;SDS011;5212;47.892;16.406;2023-04-29T03:37:30;21.23;;;18.60;;
10333;SDS011;5212;47.892;16.406;2023-04-29T03:39:56;18.80;;;16.80;;
10333;SDS011;5212;47.892;16.406;2023-04-29T03:42:22;18.93;;;16.93;;
10333;SDS011;5212;47.892;16.406;2023-04-29T03:44:48;17.57;;;15.67;;
10333;SDS011;5212;47.892;16.406;2023-04-29T03:47:14;20.17;;;17.17;;
10333;SDS011;5212;47.892;16.406;2023-04-29T03:49:40;21.93;;;19.53;;
10333;SDS011;5212;47.892;16.406;2023-04-29T03:52:06;20.97;;;18.70;;
10333;SDS011;5212;47.892;16.406;2023-04-29T03:54:33;19.13;;;16.97;;
10333;SDS011;5212;47.892;16.406;2023-04-29T03:56:59;18.10;;;16.23;;
10333;SDS011;5212;47.892;16.406;2023-04-29T03:59:26;21.37;;;19.13;;
10333;SDS011;5212;47.892;16.406;2023-04-29T04:01:52;17.90;;;16.00;;
10333;SDS011;5212;47.892;16.406;2023-04-29T04:04:18;17.83;;;15.93;;
10333;SDS011;5212;47.892;16.406;2023-04-29T04:06:44;19.87;;;17.10;;
10333;SDS011;5212;47.892;16.406;2023-04-29T04:09:15;19.47;;;16.80;;
10333;SDS011;5212;47.892;16.406;2023-04-29T04:11:41;17.90;;;16.00;;
10333;SDS011;5212;47.892;16.406;2023-04-29T04:14:07;19.00;;;16.87;;
10333;SDS011;5212;47.892;16.406;2023-04-29T04:16:33;20.27;;;17.53;;
10333;SDS011;5212;47.892;16.406;2023-04-29T04:18:59;20.63;;;17.27;;
10333;SDS011;5212;47.892;16.406;2023-04-29T04:21:25;18.47;;;15.77;;
10333;SDS011;5212;47.892;16.406;2023-04-29T04:23:51;22.10;;;17.67;;
10333;SDS011;5212;47.892;16.406;2023-04-29T04:26:18;17.83;;;15.93;;
10333;SDS011;5212;47.892;16.406;2023-04-29T04:28:44;20.23;;;17.27;;
10333;SDS011;5212;47.892;16.406;2023-04-29T04:31:11;18.97;;;16.17;;
10333;SDS011;5212;47.892;16.406;2023-04-29T04:33:38;19.47;;;17.37;;
10333;SDS011;5212;47.892;16.406;2023-04-29T04:36:05;19.40;;;16.40;;
10333;SDS011;5212;47.892;16.406;2023-04-29T04:38:31;21.40;;;17.73;;
10333;SDS011;5212;47.892;16.406;2023-04-29T04:40:57;22.23;;;17.83;;
10333;SDS011;5212;47.892;16.406;2023-04-29T04:43:24;20.33;;;17.17;;
10333;SDS011;5212;47.892;16.406;2023-04-29T04:45:50;21.73;;;17.77;;
10333;SDS011;5212;47.892;16.406;2023-04-29T04:48:16;25.47;;;20.13;;
10333;SDS011;5212;47.892;16.406;2023-04-29T04:50:42;21.50;;;17.90;;
10333;SDS011;5212;47.892;16.406;2023-04-29T04:53:08;18.70;;;15.90;;
10333;SDS011;5212;47.892;16.406;2023-04-29T04:55:34;17.80;;;15.90;;
10333;SDS011;5212;47.892;16.406;2023-04-29T04:58:01;18.40;;;16.23;;
10333;SDS011;5212;47.892;16.406;2023-04-29T05:00:27;18.37;;;16.37;;
10333;SDS011;5212;47.892;16.406;2023-04-29T05:02:53;19.43;;;15.97;;
10333;SDS011;5212;47.892;16.406;2023-04-29T05:05:19;21.60;;;18.00;;
10333;SDS011;5212;47.892;16.406;2023-04-29T05:07:45;18.60;;;16.43;;
10333;SDS011;5212;47.892;16.406;2023-04-29T05:10:12;20.57;;;16.57;;
10333;SDS011;5212;47.892;16.406;2023-04-29T05:12:38;16.87;;;14.90;;
10333;SDS011;5212;47.892;16.406;2023-04-29T05:15:05;19.83;;;15.53;;
10333;SDS011;5212;47.892;16.406;2023-04-29T05:17:32;18.60;;;16.63;;
10333;SDS011;5212;47.892;16.406;2023-04-29T05:19:58;19.80;;;16.43;;
10333;SDS011;5212;47.892;16.406;2023-04-29T05:22:25;19.10;;;17.00;;
10333;SDS011;5212;47.892;16.406;2023-04-29T05:24:51;19.50;;;15.77;;
10333;SDS011;5212;47.892;16.406;2023-04-29T05:27:18;23.13;;;20.13;;
10333;SDS011;5212;47.892;16.406;2023-04-29T05:29:44;24.60;;;20.50;;
10333;SDS011;5212;47.892;16.406;2023-04-29T05:32:10;21.67;;;19.33;;
10333;SDS011;5212;47.892;16.406;2023-04-29T05:34:37;24.03;;;20.20;;
10333;SDS011;5212;47.892;16.406;2023-04-29T05:37:03;24.43;;;20.47;;
10333;SDS011;5212;47.892;16.406;2023-04-29T05:39:30;21.40;;;18.00;;
10333;SDS011;5212;47.892;16.406;2023-04-29T05:41:56;20.47;;;18.23;;
10333;SDS011;5212;47.892;16.406;2023-04-29T05:44:23;25.73;;;21.17;;
10333;SDS011;5212;47.892;16.406;2023-04-29T05:46:49;28.87;;;25.57;;
10333;SDS011;5212;47.892;16.406;2023-04-29T05:49:16;23.87;;;20.80;;
10333;SDS011;5212;47.892;16.406;2023-04-29T05:51:41;27.57;;;23.10;;
10333;SDS011;5212;47.892;16.406;2023-04-29T05:54:07;24.67;;;21.50;;
10333;SDS011;5212;47.892;16.406;2023-04-29T05:56:34;27.67;;;23.47;;
10333;SDS011;5212;47.892;16.406;2023-04-29T05:59:00;24.27;;;21.30;;
10333;SDS011;5212;47.892;16.406;2023-04-29T06:01:26;24.07;;;20.43;;
10333;SDS011;5212;47.892;16.406;2023-04-29T06:03:52;21.77;;;19.47;;
10333;SDS011;5212;47.892;16.406;2023-04-29T06:06:18;25.93;;;23.20;;
10333;SDS011;5212;47.892;16.406;2023-04-29T06:08:44;24.97;;;21.33;;
10333;SDS011;5212;47.892;16.406;2023-04-29T06:11:10;25.07;;;22.47;;
10333;SDS011;5212;47.892;16.406;2023-04-29T06:13:37;24.50;;;21.07;;
10333;SDS011;5212;47.892;16.406;2023-04-29T06:16:03;25.40;;;22.47;;
10333;SDS011;5212;47.892;16.406;2023-04-29T06:18:29;23.43;;;21.03;;
10333;SDS011;5212;47.892;16.406;2023-04-29T06:20:55;24.27;;;21.70;;
10333;SDS011;5212;47.892;16.406;2023-04-29T06:23:21;25.43;;;22.77;;
10333;SDS011;5212;47.892;16.406;2023-04-29T06:25:47;24.57;;;21.47;;
10333;SDS011;5212;47.892;16.406;2023-04-29T06:28:13;24.23;;;21.63;;
10333;SDS011;5212;47.892;16.406;2023-04-29T06:30:40;23.00;;;20.60;;
10333;SDS011;5212;47.892;16.406;2023-04-29T06:33:05;23.60;;;21.07;;
10333;SDS011;5212;47.892;16.406;2023-04-29T06:35:32;24.43;;;20.87;;
10333;SDS011;5212;47.892;16.406;2023-04-29T06:37:58;23.00;;;20.70;;
10333;SDS011;5212;47.892;16.406;2023-04-29T06:40:24;20.63;;;18.53;;
10333;SDS011;5212;47.892;16.406;2023-04-29T06:42:50;22.40;;;20.10;;
10333;SDS011;5212;47.892;16.406;2023-04-29T06:45:16;21.77;;;19.33;;
10333;SDS011;5212;47.892;16.406;2023-04-29T06:47:43;20.90;;;18.17;;
10333;SDS011;5212;47.892;16.406;2023-04-29T06:50:09;21.40;;;19.20;;
10333;SDS011;5212;47.892;16.406;2023-04-29T06:52:35;19.57;;;17.60;;
10333;SDS011;5212;47.892;16.406;2023-04-29T06:55:01;21.13;;;19.00;;
10333;SDS011;5212;47.892;16.406;2023-04-29T06:57:27;20.63;;;18.50;;
10333;SDS011;5212;47.892;16.406;2023-04-29T06:59:53;18.80;;;16.80;;
10333;SDS011;5212;47.892;16.406;2023-04-29T07:02:19;17.37;;;15.57;;
10333;SDS011;5212;47.892;16.406;2023-04-29T07:04:46;19.20;;;17.20;;
10333;SDS011;5212;47.892;16.406;2023-04-29T07:07:13;18.87;;;17.07;;
10333;SDS011;5212;47.892;16.406;2023-04-29T07:09:39;16.57;;;14.87;;
10333;SDS011;5212;47.892;16.406;2023-04-29T07:12:05;18.40;;;16.50;;
10333;SDS011;5212;47.892;16.406;2023-04-29T07:14:31;18.60;;;16.40;;
10333;SDS011;5212;47.892;16.406;2023-04-29T07:16:58;15.80;;;14.20;;
10333;SDS011;5212;47.892;16.406;2023-04-29T07:19:24;16.63;;;15.03;;
10333;SDS011;5212;47.892;16.406;2023-04-29T07:21:50;16.57;;;14.87;;
10333;SDS011;5212;47.892;16.406;2023-04-29T07:24:16;17.03;;;15.43;;
10333;SDS011;5212;47.892;16.406;2023-04-29T07:26:42;16.50;;;14.73;;
10333;SDS011;5212;47.892;16.406;2023-04-29T07:29:09;16.97;;;14.30;;
10333;SDS011;5212;47.892;16.406;2023-04-29T07:31:35;14.37;;;12.90;;
10333;SDS011;5212;47.892;16.406;2023-04-29T07:34:01;13.73;;;12.40;;
10333;SDS011;5212;47.892;16.406;2023-04-29T07:36:27;14.33;;;12.93;;
10333;SDS011;5212;47.892;16.406;2023-04-29T07:38:54;14.20;;;12.70;;
10333;SDS011;5212;47.892;16.406;2023-04-29T07:41:20;12.20;;;10.70;;
10333;SDS011;5212;47.892;16.406;2023-04-29T07:43:46;7.00;;;6.30;;
10333;SDS011;5212;47.892;16.406;2023-04-29T07:46:12;5.20;;;4.70;;
10333;SDS011;5212;47.892;16.406;2023-04-29T07:48:38;6.30;;;5.47;;
10333;SDS011;5212;47.892;16.406;2023-04-29T07:51:04;5.30;;;4.80;;
10333;SDS011;5212;47.892;16.406;2023-04-29T07:53:30;4.20;;;3.80;;
10333;SDS011;5212;47.892;16.406;2023-04-29T07:55:57;4.27;;;3.83;;
10333;SDS011;5212;47.892;16.406;2023-04-29T07:58:23;4.00;;;3.60;;
10333;SDS011;5212;47.892;16.406;2023-04-29T08:00:49;4.27;;;3.87;;
10333;SDS011;5212;47.892;16.406;2023-04-29T08:03:15;4.73;;;3.80;;
10333;SDS011;5212;47.892;16.406;2023-04-29T08:05:41;4.10;;;3.80;;
10333;SDS011;5212;47.892;16.406;2023-04-29T08:08:07;4.50;;;4.10;;
10333;SDS011;5212;47.892;16.406;2023-04-29T08:10:36;4.67;;;4.03;;
10333;SDS011;5212;47.892;16.406;2023-04-29T08:13:05;4.33;;;4.00;;
10333;SDS011;5212;47.892;16.406;2023-04-29T08:15:32;4.40;;;4.00;;
10333;SDS011;5212;47.892;16.406;2023-04-29T08:17:58;5.33;;;4.37;;
10333;SDS011;5212;47.892;16.406;2023-04-29T08:37:48;4.33;;;3.93;;
10333;SDS011;5212;47.892;16.406;2023-04-29T08:40:14;3.77;;;3.40;;
10333;SDS011;5212;47.892;16.406;2023-04-29T08:42:40;3.50;;;3.20;;
10333;SDS011;5212;47.892;16.406;2023-04-29T08:45:08;3.73;;;3.33;;
10333;SDS011;5212;47.892;16.406;2023-04-29T08:47:35;3.50;;;3.20;;
10333;SDS011;5212;47.892;16.406;2023-04-29T08:50:02;5.00;;;4.20;;
10333;SDS011;5212;47.892;16.406;2023-04-29T08:52:29;4.90;;;4.50;;
10333;SDS011;5212;47.892;16.406;2023-04-29T08:54:57;5.27;;;4.77;;
10333;SDS011;5212;47.892;16.406;2023-04-29T08:57:23;5.20;;;4.70;;
10333;SDS011;5212;47.892;16.406;2023-04-29T08:59:50;5.47;;;4.97;;
10333;SDS011;5212;47.892;16.406;2023-04-29T09:02:16;4.90;;;4.50;;
10333;SDS011;5212;47.892;16.406;2023-04-29T09:04:46;5.27;;;4.83;;
10333;SDS011;5212;47.892;16.406;2023-04-29T09:07:12;5.30;;;4.80;;
10333;SDS011;5212;47.892;16.406;2023-04-29T09:09:39;5.77;;;5.23;;
10333;SDS011;5212;47.892;16.406;2023-04-29T09:12:05;6.23;;;5.17;;
10333;SDS011;5212;47.892;16.406;2023-04-29T09:14:31;6.57;;;5.97;;
10333;SDS011;5212;47.892;16.406;2023-04-29T09:16:58;8.77;;;7.63;;
10333;SDS011;5212;47.892;16.406;2023-04-29T09:19:27;8.47;;;7.60;;
10333;SDS011;5212;47.892;16.406;2023-04-29T09:21:54;8.57;;;7.73;;
10333;SDS011;5212;47.892;16.406;2023-04-29T09:24:23;10.07;;;9.07;;
10333;SDS011;5212;47.892;16.406;2023-04-29T09:26:50;14.00;;;8.47;;
10333;SDS011;5212;47.892;16.406;2023-04-29T09:29:17;9.00;;;8.13;;
10333;SDS011;5212;47.892;16.406;2023-04-29T09:31:43;8.80;;;7.47;;
10333;SDS011;5212;47.892;16.406;2023-04-29T09:34:10;8.53;;;7.70;;
10333;SDS011;5212;47.892;16.406;2023-04-29T09:36:40;8.70;;;7.90;;
10333;SDS011;5212;47.892;16.406;2023-04-29T09:39:10;7.00;;;6.30;;
10333;SDS011;5212;47.892;16.406;2023-04-29T09:41:38;15.40;;;7.47;;
10333;SDS011;5212;47.892;16.406;2023-04-29T09:44:05;8.60;;;7.80;;
10333;SDS011;5212;47.892;16.406;2023-04-29T09:46:32;8.03;;;7.17;;
10333;SDS011;5212;47.892;16.406;2023-04-29T09:48:59;10.83;;;9.73;;
10333;SDS011;5212;47.892;16.406;2023-04-29T09:51:25;9.53;;;8.33;;
10333;SDS011;5212;47.892;16.406;2023-04-29T09:53:52;8.57;;;7.53;;
10333;SDS011;5212;47.892;16.406;2023-04-29T09:56:18;10.67;;;9.33;;
10333;SDS011;5212;47.892;16.406;2023-04-29T09:58:44;10.10;;;9.10;;
10333;SDS011;5212;47.892;16.406;2023-04-29T10:01:10;31.07;;;25.63;;
10333;SDS011;5212;47.892;16.406;2023-04-29T10:03:38;31.60;;;24.80;;
10333;SDS011;5212;47.892;16.406;2023-04-29T10:06:04;24.43;;;20.67;;
10333;SDS011;5212;47.892;16.406;2023-04-29T10:08:31;16.17;;;14.47;;
10333;SDS011;5212;47.892;16.406;2023-04-29T10:10:58;17.10;;;14.87;;
10333;SDS011;5212;47.892;16.406;2023-04-29T10:13:26;12.70;;;11.40;;
10333;SDS011;5212;47.892;16.406;2023-04-29T10:15:55;11.40;;;10.30;;
10333;SDS011;5212;47.892;16.406;2023-04-29T10:18:25;12.13;;;10.93;;
10333;SDS011;5212;47.892;16.406;2023-04-29T10:20:55;10.83;;;9.07;;
10333;SDS011;5212;47.892;16.406;2023-04-29T10:23:22;7.30;;;6.60;;
10333;SDS011;5212;47.892;16.406;2023-04-29T10:25:49;7.57;;;6.53;;
10333;SDS011;5212;47.892;16.406;2023-04-29T10:28:17;7.73;;;7.03;;
10333;SDS011;5212;47.892;16.406;2023-04-29T10:30:45;7.00;;;6.40;;
10333;SDS011;5212;47.892;16.406;2023-04-29T10:33:15;6.37;;;5.77;;
10333;SDS011;5212;47.892;16.406;2023-04-29T10:35:42;6.33;;;5.73;;
10333;SDS011;5212;47.892;16.406;2023-04-29T10:38:13;6.80;;;6.10;;
10333;SDS011;5212;47.892;16.406;2023-04-29T10:40:43;5.90;;;5.30;;
10333;SDS011;5212;47.892;16.406;2023-04-29T10:43:10;4.87;;;4.47;;
10333;SDS011;5212;47.892;16.406;2023-04-29T10:45:36;6.20;;;4.47;;
10333;SDS011;5212;47.892;16.406;2023-04-29T10:48:10;3.97;;;3.57;;
10333;SDS011;5212;47.892;16.406;2023-04-29T10:53:30;3.90;;;3.60;;
10333;SDS011;5212;47.892;16.406;2023-04-29T10:55:57;3.27;;;3.00;;
10333;SDS011;5212;47.892;16.406;2023-04-29T10:58:34;3.57;;;3.20;;
10333;SDS011;5212;47.892;16.406;2023-04-29T11:01:06;4.00;;;2.97;;
10333;SDS011;5212;47.892;16.406;2023-04-29T11:03:45;3.00;;;2.70;;
10333;SDS011;5212;47.892;16.406;2023-04-29T11:06:12;3.60;;;2.70;;
10333;SDS011;5212;47.892;16.406;2023-04-29T11:08:39;2.20;;;2.00;;
10333;SDS011;5212;47.892;16.406;2023-04-29T11:11:06;2.17;;;2.00;;
10333;SDS011;5212;47.892;16.406;2023-04-29T11:13:36;3.10;;;2.27;;
10333;SDS011;5212;47.892;16.406;2023-04-29T11:16:04;3.53;;;3.23;;
10333;SDS011;5212;47.892;16.406;2023-04-29T11:18:30;5.77;;;5.27;;
10333;SDS011;5212;47.892;16.406;2023-04-29T11:23:48;8.40;;;7.67;;
10333;SDS011;5212;47.892;16.406;2023-04-29T11:26:17;8.23;;;7.40;;
10333;SDS011;5212;47.892;16.406;2023-04-29T11:28:43;8.60;;;7.80;;
10333;SDS011;5212;47.892;16.406;2023-04-29T11:31:10;7.93;;;7.13;;
10333;SDS011;5212;47.892;16.406;2023-04-29T11:33:36;7.63;;;6.93;;
10333;SDS011;5212;47.892;16.406;2023-04-29T11:36:02;6.63;;;6.03;;
10333;SDS011;5212;47.892;16.406;2023-04-29T11:38:29;5.20;;;4.80;;
10333;SDS011;5212;47.892;16.406;2023-04-29T11:40:56;4.80;;;4.40;;
10333;SDS011;5212;47.892;16.406;2023-04-29T11:43:23;4.07;;;3.67;;
10333;SDS011;5212;47.892;16.406;2023-04-29T11:45:50;3.50;;;3.20;;
10333;SDS011;5212;47.892;16.406;2023-04-29T11:48:17;4.17;;;3.77;;
10333;SDS011;5212;47.892;16.406;2023-04-29T11:50:43;3.87;;;3.50;;
10333;SDS011;5212;47.892;16.406;2023-04-29T11:53:09;3.10;;;2.80;;
10333;SDS011;5212;47.892;16.406;2023-04-29T11:55:36;3.13;;;2.83;;
10333;SDS011;5212;47.892;16.406;2023-04-29T11:58:03;3.80;;;3.40;;
10333;SDS011;5212;47.892;16.406;2023-04-29T12:00:29;3.70;;;3.40;;
10333;SDS011;5212;47.892;16.406;2023-04-29T12:02:56;4.00;;;3.60;;
10333;SDS011;5212;47.892;16.406;2023-04-29T12:05:24;4.33;;;3.93;;
10333;SDS011;5212;47.892;16.406;2023-04-29T12:07:50;5.00;;;4.60;;
10333;SDS011;5212;47.892;16.406;2023-04-29T12:10:16;6.03;;;5.40;;
10333;SDS011;5212;47.892;16.406;2023-04-29T12:12:42;6.23;;;5.43;;
10333;SDS011;5212;47.892;16.406;2023-04-29T12:15:11;5.40;;;4.90;;
10333;SDS011;5212;47.892;16.406;2023-04-29T12:17:37;5.50;;;5.00;;
10333;SDS011;5212;47.892;16.406;2023-04-29T12:20:03;4.77;;;4.33;;
10333;SDS011;5212;47.892;16.406;2023-04-29T12:22:30;4.93;;;4.47;;
10333;SDS011;5212;47.892;16.406;2023-04-29T12:24:56;3.87;;;3.57;;
10333;SDS011;5212;47.892;16.406;2023-04-29T12:27:22;3.50;;;3.00;;
10333;SDS011;5212;47.892;16.406;2023-04-29T12:29:50;3.70;;;3.30;;
10333;SDS011;5212;47.892;16.406;2023-04-29T12:32:17;3.53;;;3.17;;
10333;SDS011;5212;47.892;16.406;2023-04-29T12:34:46;3.57;;;2.93;;
10333;SDS011;5212;47.892;16.406;2023-04-29T12:37:15;3.10;;;2.80;;
10333;SDS011;5212;47.892;16.406;2023-04-29T12:39:41;3.43;;;2.80;;
10333;SDS011;5212;47.892;16.406;2023-04-29T12:42:13;3.63;;;3.33;;
10333;SDS011;5212;47.892;16.406;2023-04-29T12:44:39;3.60;;;3.30;;
10333;SDS011;5212;47.892;16.406;2023-04-29T12:47:06;3.40;;;3.10;;
10333;SDS011;5212;47.892;16.406;2023-04-29T12:49:33;2.80;;;2.60;;
10333;SDS011;5212;47.892;16.406;2023-04-29T12:52:00;2.60;;;2.40;;
10333;SDS011;5212;47.892;16.406;2023-04-29T12:54:26;2.60;;;2.40;;
10333;SDS011;5212;47.892;16.406;2023-04-29T12:56:52;2.50;;;2.30;;
10333;SDS011;5212;47.892;16.406;2023-04-29T12:59:18;2.73;;;2.30;;
10333;SDS011;5212;47.892;16.406;2023-04-29T13:01:44;2.20;;;2.00;;
10333;SDS011;5212;47.892;16.406;2023-04-29T13:04:11;2.63;;;2.43;;
10333;SDS011;5212;47.892;16.406;2023-04-29T13:06:37;2.00;;;1.80;;
10333;SDS011;5212;47.892;16.406;2023-04-29T13:09:05;1.93;;;1.83;;
10333;SDS011;5212;47.892;16.406;2023-04-29T13:11:31;2.27;;;2.07;;
10333;SDS011;5212;47.892;16.406;2023-04-29T13:13:57;1.90;;;1.80;;
10333;SDS011;5212;47.892;16.406;2023-04-29T13:16:23;2.17;;;1.97;;
10333;SDS011;5212;47.892;16.406;2023-04-29T13:18:49;1.90;;;1.80;;
10333;SDS011;5212;47.892;16.406;2023-04-29T13:21:15;2.73;;;2.17;;
10333;SDS011;5212;47.892;16.406;2023-04-29T13:23:42;2.07;;;1.87;;
10333;SDS011;5212;47.892;16.406;2023-04-29T13:26:07;2.60;;;1.93;;
10333;SDS011;5212;47.892;16.406;2023-04-29T13:28:33;2.30;;;1.90;;
10333;SDS011;5212;47.892;16.406;2023-04-29T13:30:59;1.80;;;1.70;;
10333;SDS011;5212;47.892;16.406;2023-04-29T13:33:25;1.83;;;1.63;;
10333;SDS011;5212;47.892;16.406;2023-04-29T13:35:51;2.03;;;1.83;;
10333;SDS011;5212;47.892;16.406;2023-04-29T13:38:17;2.60;;;1.97;;
10333;SDS011;5212;47.892;16.406;2023-04-29T13:40:44;2.63;;;2.00;;
10333;SDS011;5212;47.892;16.406;2023-04-29T13:43:10;2.30;;;2.10;;
10333;SDS011;5212;47.892;16.406;2023-04-29T13:45:36;3.87;;;3.30;;
10333;SDS011;5212;47.892;16.406;2023-04-29T13:48:03;3.97;;;3.30;;
10333;SDS011;5212;47.892;16.406;2023-04-29T13:50:29;3.77;;;3.30;;
10333;SDS011;5212;47.892;16.406;2023-04-29T13:52:55;6.03;;;3.70;;
10333;SDS011;5212;47.892;16.406;2023-04-29T13:55:21;4.13;;;3.77;;
10333;SDS011;5212;47.892;16.406;2023-04-29T13:57:48;3.50;;;3.20;;
10333;SDS011;5212;47.892;16.406;2023-04-29T14:00:15;3.17;;;2.87;;
10333;SDS011;5212;47.892;16.406;2023-04-29T14:02:41;2.90;;;2.57;;
10333;SDS011;5212;47.892;16.406;2023-04-29T14:05:07;2.93;;;2.50;;
10333;SDS011;5212;47.892;16.406;2023-04-29T14:07:34;3.03;;;2.80;;
10333;SDS011;5212;47.892;16.406;2023-04-29T14:10:00;4.53;;;3.20;;
10333;SDS011;5212;47.892;16.406;2023-04-29T14:12:26;4.60;;;3.00;;
10333;SDS011;5212;47.892;16.406;2023-04-29T14:14:52;2.70;;;2.50;;
10333;SDS011;5212;47.892;16.406;2023-04-29T14:17:18;3.03;;;2.70;;
10333;SDS011;5212;47.892;16.406;2023-04-29T14:19:44;2.57;;;2.37;;
10333;SDS011;5212;47.892;16.406;2023-04-29T14:22:10;2.57;;;2.37;;
10333;SDS011;5212;47.892;16.406;2023-04-29T14:24:36;3.23;;;2.47;;
10333;SDS011;5212;47.892;16.406;2023-04-29T14:27:03;3.43;;;2.83;;
10333;SDS011;5212;47.892;16.406;2023-04-29T14:29:29;2.93;;;2.63;;
10333;SDS011;5212;47.892;16.406;2023-04-29T14:31:56;3.23;;;2.93;;
10333;SDS011;5212;47.892;16.406;2023-04-29T14:34:22;3.27;;;2.87;;
10333;SDS011;5212;47.892;16.406;2023-04-29T14:36:48;3.60;;;3.30;;
10333;SDS011;5212;47.892;16.406;2023-04-29T14:39:14;3.57;;;3.27;;
10333;SDS011;5212;47.892;16.406;2023-04-29T14:41:40;5.37;;;3.80;;
10333;SDS011;5212;47.892;16.406;2023-04-29T14:44:06;4.00;;;3.60;;
10333;SDS011;5212;47.892;16.406;2023-04-29T14:46:32;4.30;;;3.90;;
10333;SDS011;5212;47.892;16.406;2023-04-29T14:48:59;4.47;;;4.07;;
10333;SDS011;5212;47.892;16.406;2023-04-29T14:51:25;5.17;;;4.40;;
10333;SDS011;5212;47.892;16.406;2023-04-29T14:53:52;4.17;;;3.80;;